Time;durP1;ratioP1;P1;durP2;ratioP2;P2;SDS_P1;SDS_P2;PMS_P1;PMS_P2;Temp;Humidity;BMP_temperature;BMP_pressure;BME280_temperature;BME280_humidity;BME280_pressure;Samples;Min_cycle;Max_cycle;Signal;HPM_P1;HPM_P2
2023/08/18 00:01:51;;;;;;;8.07;5.43;;;;;;;;;;5133209;28;20058;-60
2023/08/18 00:04:18;;;;;;;9.07;4.53;;;;;;;;;;5133063;28;20483;-60
2023/08/18 00:06:45;;;;;;;6.38;4.20;;;;;;;;;;5132796;28;20070;-61
2023/08/18 00:09:12;;;;;;;7.15;4.28;;;;;;;;;;5132727;28;20070;-61
2023/08/18 00:11:40;;;;;;;7.43;5.20;;;;;;;;;;5133260;28;20403;-60
2023/08/18 00:14:07;;;;;;;9.33;4.97;;;;;;;;;;5132733;28;20047;-61
2023/08/18 00:16:34;;;;;;;10.25;5.00;;;;;;;;;;5133146;28;20051;-60
2023/08/18 00:19:01;;;;;;;9.63;5.13;;;;;;;;;;5132916;28;20048;-61
2023/08/18 00:21:27;;;;;;;8.02;5.22;;;;;;;;;;5132658;28;20074;-60
2023/08/18 00:23:56;;;;;;;8.60;4.20;;;;;;;;;;5132664;28;20047;-60
2023/08/18 00:26:23;;;;;;;9.25;5.65;;;;;;;;;;5132178;28;20070;-61
2023/08/18 00:28:51;;;;;;;7.82;4.57;;;;;;;;;;5133131;27;20047;-61
2023/08/18 00:31:18;;;;;;;7.70;4.45;;;;;;;;;;5136794;27;20407;-60
2023/08/18 00:33:45;;;;;;;9.68;4.97;;;;;;;;;;5136578;27;20051;-61
2023/08/18 00:36:17;;;;;;;7.18;4.68;;;;;;;;;;5136285;27;20492;-60
2023/08/18 00:38:44;;;;;;;10.35;4.55;;;;;;;;;;5131250;27;20362;-59
2023/08/18 00:41:10;;;;;;;8.77;5.57;;;;;;;;;;5115100;28;20047;-60
2023/08/18 00:43:37;;;;;;;8.98;4.32;;;;;;;;;;5115432;28;20058;-60
2023/08/18 00:46:06;;;;;;;9.43;4.82;;;;;;;;;;5115003;28;20047;-60
2023/08/18 00:48:33;;;;;;;7.75;4.70;;;;;;;;;;5116052;28;20066;-60
2023/08/18 00:51:01;;;;;;;8.48;4.97;;;;;;;;;;5115875;28;20055;-59
2023/08/18 00:53:28;;;;;;;7.78;4.45;;;;;;;;;;5115472;28;20054;-60
2023/08/18 00:55:55;;;;;;;9.65;5.15;;;;;;;;;;5115864;28;20051;-60
2023/08/18 00:58:22;;;;;;;8.00;4.55;;;;;;;;;;5115527;28;20051;-60
2023/08/18 01:00:49;;;;;;;6.47;4.32;;;;;;;;;;5115716;28;20058;-59
2023/08/18 01:03:17;;;;;;;7.97;4.90;;;;;;;;;;5115441;28;20055;-60
2023/08/18 01:05:44;;;;;;;11.27;4.87;;;;;;;;;;5115247;28;20055;-59
2023/08/18 01:08:11;;;;;;;11.10;5.43;;;;;;;;;;5115232;28;20059;-60
2023/08/18 01:10:44;;;;;;;6.80;4.10;;;;;;;;;;5115470;28;20056;-59
2023/08/18 01:13:12;;;;;;;7.47;4.95;;;;;;;;;;5115146;28;20051;-60
2023/08/18 01:15:39;;;;;;;8.13;4.80;;;;;;;;;;5115630;28;20131;-59
2023/08/18 01:18:06;;;;;;;8.45;5.07;;;;;;;;;;5115209;28;20062;-59
2023/08/18 01:20:35;;;;;;;9.68;5.38;;;;;;;;;;5115086;28;20051;-60
2023/08/18 01:23:03;;;;;;;9.27;5.20;;;;;;;;;;5114756;28;20062;-60
2023/08/18 01:25:30;;;;;;;10.55;5.53;;;;;;;;;;5115084;28;20055;-60
2023/08/18 01:27:58;;;;;;;6.70;4.03;;;;;;;;;;5114675;28;20048;-59
2023/08/18 01:30:28;;;;;;;9.20;5.18;;;;;;;;;;5114997;28;20058;-59
2023/08/18 01:32:58;;;;;;;9.18;4.85;;;;;;;;;;5115118;28;20408;-60
2023/08/18 01:35:26;;;;;;;7.35;4.95;;;;;;;;;;5114359;28;20412;-60
2023/08/18 01:37:54;;;;;;;7.75;4.63;;;;;;;;;;5114547;28;20051;-59
2023/08/18 01:40:24;;;;;;;9.15;5.97;;;;;;;;;;5114240;28;20055;-60
2023/08/18 01:42:52;;;;;;;9.43;4.32;;;;;;;;;;5114495;28;20496;-59
2023/08/18 01:45:19;;;;;;;7.25;3.40;;;;;;;;;;5114394;28;20067;-59
2023/08/18 01:47:46;;;;;;;8.95;4.75;;;;;;;;;;5114247;28;20052;-59
2023/08/18 01:50:12;;;;;;;8.85;5.10;;;;;;;;;;5114386;28;20050;-60
2023/08/18 01:52:39;;;;;;;8.82;4.68;;;;;;;;;;5114066;28;20043;-59
2023/08/18 01:55:06;;;;;;;7.90;5.47;;;;;;;;;;5130212;27;20062;-60
2023/08/18 01:57:34;;;;;;;6.95;4.55;;;;;;;;;;5134931;27;20047;-59
2023/08/18 02:00:01;;;;;;;8.38;4.30;;;;;;;;;;5134522;27;20047;-60
2023/08/18 02:02:28;;;;;;;10.90;6.65;;;;;;;;;;5134815;27;20058;-59
2023/08/18 02:04:55;;;;;;;7.10;4.53;;;;;;;;;;5134872;27;20062;-60
2023/08/18 02:07:22;;;;;;;10.35;5.25;;;;;;;;;;5134907;27;20384;-60
2023/08/18 02:09:49;;;;;;;9.85;5.60;;;;;;;;;;5134434;27;20047;-59
2023/08/18 02:12:16;;;;;;;10.75;5.35;;;;;;;;;;5134403;27;20055;-60
2023/08/18 02:14:44;;;;;;;9.02;4.72;;;;;;;;;;5134683;27;20062;-60
2023/08/18 02:17:11;;;;;;;8.93;5.10;;;;;;;;;;5134367;27;20058;-59
2023/08/18 02:19:37;;;;;;;7.10;4.00;;;;;;;;;;5134530;27;20070;-60
2023/08/18 02:22:04;;;;;;;7.55;4.20;;;;;;;;;;5134190;27;20066;-60
2023/08/18 02:24:31;;;;;;;7.40;5.38;;;;;;;;;;5134460;27;20051;-60
2023/08/18 02:26:59;;;;;;;7.65;4.97;;;;;;;;;;5134373;27;20058;-59
2023/08/18 02:29:26;;;;;;;8.70;4.80;;;;;;;;;;5134289;27;20468;-60
2023/08/18 02:31:54;;;;;;;8.15;4.75;;;;;;;;;;5134235;27;20488;-60
2023/08/18 02:34:21;;;;;;;10.15;5.65;;;;;;;;;;5134061;27;20051;-60
2023/08/18 02:36:48;;;;;;;10.38;4.72;;;;;;;;;;5134213;27;20058;-60
2023/08/18 02:39:15;;;;;;;11.38;6.20;;;;;;;;;;5133660;27;20405;-59
2023/08/18 02:41:41;;;;;;;9.95;4.90;;;;;;;;;;5133831;27;20058;-60
2023/08/18 02:44:08;;;;;;;8.70;4.93;;;;;;;;;;5133609;27;20055;-59
2023/08/18 02:46:35;;;;;;;7.85;4.72;;;;;;;;;;5133984;27;20051;-60
2023/08/18 02:49:03;;;;;;;8.38;4.72;;;;;;;;;;5133887;27;20055;-60
2023/08/18 02:51:30;;;;;;;8.52;4.50;;;;;;;;;;5133724;27;20054;-60
2023/08/18 02:53:57;;;;;;;10.63;5.45;;;;;;;;;;5132896;27;20403;-60
2023/08/18 02:56:24;;;;;;;8.05;5.15;;;;;;;;;;5134029;27;20058;-60
2023/08/18 02:58:51;;;;;;;9.15;4.50;;;;;;;;;;5133778;27;20047;-60
2023/08/18 03:01:17;;;;;;;9.02;4.90;;;;;;;;;;5133754;27;20058;-60
2023/08/18 03:03:44;;;;;;;8.35;5.18;;;;;;;;;;5133463;27;20409;-60
2023/08/18 03:06:12;;;;;;;8.48;4.70;;;;;;;;;;5133713;27;20062;-60
2023/08/18 03:08:39;;;;;;;8.32;4.80;;;;;;;;;;5133421;27;20047;-60
2023/08/18 03:11:06;;;;;;;5.93;3.47;;;;;;;;;;5133719;27;20054;-60
2023/08/18 03:13:33;;;;;;;9.05;4.50;;;;;;;;;;5133186;27;20055;-60
2023/08/18 03:16:00;;;;;;;7.93;4.35;;;;;;;;;;5133671;27;20507;-60
2023/08/18 03:18:27;;;;;;;9.30;5.18;;;;;;;;;;5133494;27;20376;-60
2023/08/18 03:20:58;;;;;;;13.05;5.10;;;;;;;;;;5133381;27;20054;-60
2023/08/18 03:23:26;;;;;;;9.38;4.78;;;;;;;;;;5133464;27;20082;-60
2023/08/18 03:25:58;;;;;;;9.73;5.25;;;;;;;;;;5133422;27;20047;-59
2023/08/18 03:28:25;;;;;;;9.95;4.80;;;;;;;;;;5133454;27;20065;-60
2023/08/18 03:30:52;;;;;;;8.38;4.55;;;;;;;;;;5133232;27;20066;-60
2023/08/18 03:33:19;;;;;;;9.15;5.22;;;;;;;;;;5132875;27;20047;-60
2023/08/18 03:35:49;;;;;;;9.85;5.15;;;;;;;;;;5132667;27;20062;-60
2023/08/18 03:38:15;;;;;;;8.52;4.43;;;;;;;;;;5132908;27;20407;-61
2023/08/18 03:40:44;;;;;;;8.38;4.68;;;;;;;;;;5133137;27;20048;-60
2023/08/18 03:43:10;;;;;;;8.45;4.22;;;;;;;;;;5133052;28;20047;-60
2023/08/18 03:45:38;;;;;;;7.72;4.18;;;;;;;;;;5133045;28;20078;-60
2023/08/18 03:48:05;;;;;;;7.57;4.57;;;;;;;;;;5133161;28;20066;-60
2023/08/18 03:50:32;;;;;;;7.63;4.35;;;;;;;;;;5132941;28;20180;-60
2023/08/18 03:52:58;;;;;;;7.43;3.80;;;;;;;;;;5132732;28;20051;-60
2023/08/18 03:55:25;;;;;;;6.82;3.83;;;;;;;;;;5132843;28;20407;-60
2023/08/18 03:57:53;;;;;;;7.95;3.60;;;;;;;;;;5132729;28;20055;-59
2023/08/18 04:00:20;;;;;;;13.48;5.38;;;;;;;;;;5133195;28;20499;-59
2023/08/18 04:02:47;;;;;;;7.78;4.80;;;;;;;;;;5133159;28;20058;-60
2023/08/18 04:05:14;;;;;;;6.63;3.85;;;;;;;;;;5136959;27;20067;-59
2023/08/18 04:07:41;;;;;;;8.07;4.57;;;;;;;;;;5136724;27;20058;-59
2023/08/18 04:10:08;;;;;;;8.80;4.03;;;;;;;;;;5137071;27;20043;-60
2023/08/18 04:12:35;;;;;;;8.27;4.20;;;;;;;;;;5136813;27;20051;-60
2023/08/18 04:15:04;;;;;;;8.02;5.38;;;;;;;;;;5136900;27;20055;-60
2023/08/18 04:17:30;;;;;;;7.32;4.10;;;;;;;;;;5136807;27;20051;-60
2023/08/18 04:19:57;;;;;;;9.73;4.22;;;;;;;;;;5136547;27;20054;-60
2023/08/18 04:22:24;;;;;;;6.32;4.88;;;;;;;;;;5136648;27;20051;-60
2023/08/18 04:24:51;;;;;;;6.53;4.30;;;;;;;;;;5136726;27;20376;-60
2023/08/18 04:27:18;;;;;;;6.03;3.88;;;;;;;;;;5136593;27;20510;-60
2023/08/18 04:29:45;;;;;;;7.65;4.63;;;;;;;;;;5136428;27;20058;-60
2023/08/18 04:32:13;;;;;;;8.60;4.43;;;;;;;;;;5136310;27;20058;-60
2023/08/18 04:34:40;;;;;;;6.00;4.30;;;;;;;;;;5136205;27;20059;-60
2023/08/18 04:37:07;;;;;;;5.70;3.88;;;;;;;;;;5136143;27;20047;-60
2023/08/18 04:39:34;;;;;;;8.60;4.10;;;;;;;;;;5136247;27;20144;-60
2023/08/18 04:42:00;;;;;;;11.13;4.30;;;;;;;;;;5135817;27;20051;-60
2023/08/18 04:44:28;;;;;;;6.95;4.30;;;;;;;;;;5136259;27;20047;-60
2023/08/18 04:46:55;;;;;;;6.78;3.63;;;;;;;;;;5136310;27;20057;-60
2023/08/18 04:49:23;;;;;;;6.47;3.42;;;;;;;;;;5136021;27;20058;-60
2023/08/18 04:51:50;;;;;;;8.77;3.47;;;;;;;;;;5136330;27;20062;-60
2023/08/18 04:54:17;;;;;;;6.13;3.45;;;;;;;;;;5136014;27;20054;-59
2023/08/18 04:56:44;;;;;;;5.85;3.25;;;;;;;;;;5136248;27;20515;-60
2023/08/18 04:59:11;;;;;;;6.55;3.50;;;;;;;;;;5136025;27;20055;-59
2023/08/18 05:01:38;;;;;;;7.18;3.58;;;;;;;;;;5135800;27;20419;-60
2023/08/18 05:04:04;;;;;;;6.00;3.30;;;;;;;;;;5135672;27;20055;-59
2023/08/18 05:06:33;;;;;;;6.25;3.03;;;;;;;;;;5135305;27;20055;-60
2023/08/18 05:08:59;;;;;;;5.75;3.28;;;;;;;;;;5135474;27;20487;-59
2023/08/18 05:11:26;;;;;;;4.35;2.65;;;;;;;;;;5135277;27;20055;-59
2023/08/18 05:13:53;;;;;;;5.72;2.65;;;;;;;;;;5135476;27;20047;-59
2023/08/18 05:16:20;;;;;;;6.45;3.85;;;;;;;;;;5134735;27;20051;-60
2023/08/18 05:18:46;;;;;;;5.25;3.08;;;;;;;;;;5135234;27;20504;-60
2023/08/18 05:21:13;;;;;;;5.43;3.65;;;;;;;;;;5135679;27;20418;-60
2023/08/18 05:23:41;;;;;;;6.65;3.25;;;;;;;;;;5135463;27;20050;-60
2023/08/18 05:26:08;;;;;;;5.38;3.15;;;;;;;;;;5135469;27;20069;-60
2023/08/18 05:28:35;;;;;;;6.00;3.03;;;;;;;;;;5134947;27;20047;-60
2023/08/18 05:31:02;;;;;;;4.97;3.17;;;;;;;;;;5135335;27;20056;-59
2023/08/18 05:33:29;;;;;;;5.53;3.08;;;;;;;;;;5135086;27;20073;-60
2023/08/18 05:35:58;;;;;;;5.75;3.22;;;;;;;;;;5134802;27;20047;-59
2023/08/18 05:38:24;;;;;;;5.82;2.35;;;;;;;;;;5135389;27;20047;-59
2023/08/18 05:40:53;;;;;;;5.45;2.92;;;;;;;;;;5135212;27;20050;-60
2023/08/18 05:43:20;;;;;;;5.40;2.25;;;;;;;;;;5134859;27;20051;-60
2023/08/18 05:45:48;;;;;;;3.13;1.92;;;;;;;;;;5135037;27;20075;-60
2023/08/18 05:48:15;;;;;;;4.95;2.90;;;;;;;;;;5135098;27;20055;-60
2023/08/18 05:50:42;;;;;;;4.45;2.65;;;;;;;;;;5134945;27;20051;-59
2023/08/18 05:53:08;;;;;;;4.85;2.75;;;;;;;;;;5134630;27;20070;-60
2023/08/18 05:55:35;;;;;;;5.13;2.45;;;;;;;;;;5134990;27;20047;-59
2023/08/18 05:58:04;;;;;;;4.90;3.05;;;;;;;;;;5134765;27;20480;-60
2023/08/18 06:00:31;;;;;;;;;;;;;;;;;;5135144;27;20055;-60
2023/08/18 06:02:59;;;;;;;3.67;2.42;;;;;;;;;;5134905;27;20303;-59
2023/08/18 06:05:28;;;;;;;3.95;2.00;;;;;;;;;;5134761;27;20054;-60
2023/08/18 06:07:54;;;;;;;3.38;2.25;;;;;;;;;;5134438;27;20051;-59
2023/08/18 06:10:21;;;;;;;5.75;2.90;;;;;;;;;;5134469;27;20055;-60
2023/08/18 06:12:48;;;;;;;4.55;2.47;;;;;;;;;;5134241;27;20070;-60
2023/08/18 06:15:17;;;;;;;4.18;2.17;;;;;;;;;;5133991;27;20051;-60
2023/08/18 06:17:44;;;;;;;4.13;2.33;;;;;;;;;;5134346;27;20411;-60
2023/08/18 06:20:11;;;;;;;2.90;1.83;;;;;;;;;;5134194;27;20068;-60
2023/08/18 06:22:38;;;;;;;3.83;2.25;;;;;;;;;;5134223;27;20050;-59
2023/08/18 06:25:05;;;;;;;4.53;2.38;;;;;;;;;;5134367;27;20487;-60
2023/08/18 06:27:32;;;;;;;5.45;2.55;;;;;;;;;;5132889;27;20051;-59
2023/08/18 06:29:59;;;;;;;3.53;2.08;;;;;;;;;;5134280;27;20452;-60
2023/08/18 06:32:27;;;;;;;3.45;2.15;;;;;;;;;;5134280;27;20475;-59
2023/08/18 06:34:54;;;;;;;4.55;2.60;;;;;;;;;;5133864;27;20066;-60
2023/08/18 06:37:21;;;;;;;3.58;1.88;;;;;;;;;;5134141;27;20055;-60
2023/08/18 06:39:48;;;;;;;3.17;1.95;;;;;;;;;;5133934;27;20442;-60
2023/08/18 06:42:14;;;;;;;3.25;1.75;;;;;;;;;;5133740;27;20058;-60
2023/08/18 06:44:41;;;;;;;3.60;1.92;;;;;;;;;;5133821;27;20047;-60
2023/08/18 06:47:08;;;;;;;3.85;1.92;;;;;;;;;;5133904;27;20057;-60
2023/08/18 06:49:36;;;;;;;3.53;1.95;;;;;;;;;;5133679;27;20078;-60
2023/08/18 06:52:03;;;;;;;4.10;1.75;;;;;;;;;;5133535;27;20537;-60
2023/08/18 06:54:30;;;;;;;2.65;1.55;;;;;;;;;;5133715;27;20062;-60
2023/08/18 06:56:56;;;;;;;4.25;2.05;;;;;;;;;;5133427;27;20051;-60
2023/08/18 06:59:24;;;;;;;3.00;1.65;;;;;;;;;;5133165;27;20051;-60
2023/08/18 07:01:53;;;;;;;3.10;1.75;;;;;;;;;;5133307;27;20047;-60
2023/08/18 07:04:20;;;;;;;3.13;2.00;;;;;;;;;;5133333;27;20055;-59
2023/08/18 07:06:48;;;;;;;4.60;2.20;;;;;;;;;;5133650;27;20078;-60
2023/08/18 07:09:15;;;;;;;3.92;2.45;;;;;;;;;;5133063;27;20073;-59
2023/08/18 07:11:42;;;;;;;4.28;1.50;;;;;;;;;;5133301;27;20412;-60
2023/08/18 07:14:08;;;;;;;4.13;2.67;;;;;;;;;;5133503;27;20059;-61
2023/08/18 07:16:35;;;;;;;2.33;1.63;;;;;;;;;;5133325;27;20476;-60
2023/08/18 07:19:03;;;;;;;3.97;2.65;;;;;;;;;;5133160;27;20054;-61
2023/08/18 07:21:29;;;;;;;3.35;1.65;;;;;;;;;;5132933;27;20058;-60
2023/08/18 07:23:58;;;;;;;3.38;1.63;;;;;;;;;;5133529;27;20399;-60
2023/08/18 07:26:24;;;;;;;3.03;1.77;;;;;;;;;;5133575;27;20047;-59
2023/08/18 07:28:51;;;;;;;3.83;1.95;;;;;;;;;;5132957;27;20055;-59
2023/08/18 07:31:18;;;;;;;4.00;2.53;;;;;;;;;;5133507;27;20062;-60
2023/08/18 07:33:45;;;;;;;4.15;2.10;;;;;;;;;;5132990;27;20132;-60
2023/08/18 07:36:12;;;;;;;3.95;1.98;;;;;;;;;;5132857;27;20066;-60
2023/08/18 07:38:39;;;;;;;2.50;1.50;;;;;;;;;;5132937;27;20067;-59
2023/08/18 07:41:07;;;;;;;3.60;2.20;;;;;;;;;;5133313;27;20411;-60
2023/08/18 07:43:34;;;;;;;2.53;1.58;;;;;;;;;;5132929;27;20070;-60
2023/08/18 07:46:01;;;;;;;4.55;2.38;;;;;;;;;;5133257;28;20047;-60
2023/08/18 07:48:28;;;;;;;4.13;1.88;;;;;;;;;;5132968;28;20058;-60
2023/08/18 07:50:55;;;;;;;2.80;1.83;;;;;;;;;;5133020;28;20055;-61
2023/08/18 07:53:21;;;;;;;3.28;1.52;;;;;;;;;;5132566;28;20058;-60
2023/08/18 07:55:48;;;;;;;3.15;1.58;;;;;;;;;;5133198;28;20055;-61
2023/08/18 07:58:16;;;;;;;3.30;1.65;;;;;;;;;;5133136;28;20537;-60
2023/08/18 08:00:43;;;;;;;3.67;2.25;;;;;;;;;;5132954;28;20051;-60
2023/08/18 08:03:10;;;;;;;2.60;2.05;;;;;;;;;;5132726;28;20067;-61
2023/08/18 08:05:38;;;;;;;3.28;1.92;;;;;;;;;;5132812;28;20392;-60
2023/08/18 08:08:05;;;;;;;4.05;1.90;;;;;;;;;;5132759;28;20050;-60
2023/08/18 08:10:32;;;;;;;3.30;1.88;;;;;;;;;;5132928;28;20051;-60
2023/08/18 08:12:59;;;;;;;2.80;1.50;;;;;;;;;;5132313;28;20414;-60
2023/08/18 08:15:27;;;;;;;3.63;1.90;;;;;;;;;;5132608;28;20066;-60
2023/08/18 08:17:54;;;;;;;3.30;1.83;;;;;;;;;;5132692;28;20051;-60
2023/08/18 08:20:21;;;;;;;2.78;1.70;;;;;;;;;;5132785;28;20078;-60
2023/08/18 08:22:48;;;;;;;2.72;1.58;;;;;;;;;;5132771;28;20058;-60
2023/08/18 08:25:15;;;;;;;3.58;1.80;;;;;;;;;;5132468;28;20062;-60
2023/08/18 08:27:42;;;;;;;4.55;2.70;;;;;;;;;;5132777;28;20051;-60
2023/08/18 08:30:11;;;;;;;3.08;1.70;;;;;;;;;;5132990;28;20047;-59
2023/08/18 08:32:39;;;;;;;2.78;2.13;;;;;;;;;;5132914;28;20377;-60
2023/08/18 08:35:06;;;;;;;3.70;2.20;;;;;;;;;;5132316;28;20396;-60
2023/08/18 08:37:33;;;;;;;3.20;1.95;;;;;;;;;;5132401;28;20051;-60
2023/08/18 08:39:59;;;;;;;4.13;2.15;;;;;;;;;;5132696;28;20051;-60
2023/08/18 08:42:26;;;;;;;4.07;1.95;;;;;;;;;;5132186;28;20058;-60
2023/08/18 08:44:53;;;;;;;2.50;1.55;;;;;;;;;;5132325;28;20051;-60
2023/08/18 08:47:20;;;;;;;3.80;1.92;;;;;;;;;;5132535;28;20051;-60
2023/08/18 08:49:49;;;;;;;2.67;1.95;;;;;;;;;;5132721;27;20058;-60
2023/08/18 08:52:16;;;;;;;3.15;1.65;;;;;;;;;;5135776;27;20047;-60
2023/08/18 08:54:46;;;;;;;3.78;2.67;;;;;;;;;;5135720;27;20055;-60
2023/08/18 08:57:13;;;;;;;3.78;2.10;;;;;;;;;;5135805;27;20047;-60
2023/08/18 08:59:40;;;;;;;3.53;2.15;;;;;;;;;;5136012;27;20172;-60
2023/08/18 09:02:07;;;;;;;4.10;1.75;;;;;;;;;;5135998;27;20114;-60
2023/08/18 09:04:34;;;;;;;3.38;1.75;;;;;;;;;;5135786;27;20053;-60
2023/08/18 09:07:02;;;;;;;3.00;2.03;;;;;;;;;;5135885;27;20492;-60
2023/08/18 09:09:29;;;;;;;3.08;2.15;;;;;;;;;;5135647;27;20055;-60
2023/08/18 09:11:59;;;;;;;3.00;1.75;;;;;;;;;;5136024;27;20055;-60
2023/08/18 09:14:27;;;;;;;2.22;1.80;;;;;;;;;;5135550;27;20051;-60
2023/08/18 09:16:53;;;;;;;4.30;2.13;;;;;;;;;;5135492;27;20051;-60
2023/08/18 09:19:22;;;;;;;3.38;1.90;;;;;;;;;;5135642;27;20055;-60
2023/08/18 09:21:50;;;;;;;2.42;1.42;;;;;;;;;;5135685;27;20046;-60
2023/08/18 09:24:20;;;;;;;2.13;1.55;;;;;;;;;;5135668;27;20062;-59
2023/08/18 09:26:47;;;;;;;3.10;1.92;;;;;;;;;;5135562;27;20420;-60
2023/08/18 09:29:13;;;;;;;3.05;1.77;;;;;;;;;;5135221;27;20047;-60
2023/08/18 09:31:40;;;;;;;3.60;2.00;;;;;;;;;;5135425;27;20051;-60
2023/08/18 09:34:07;;;;;;;2.90;1.75;;;;;;;;;;5134538;27;20051;-60
2023/08/18 09:36:34;;;;;;;2.53;1.80;;;;;;;;;;5134954;27;20062;-60
2023/08/18 09:39:04;;;;;;;2.92;1.33;;;;;;;;;;5135359;27;20055;-60
2023/08/18 09:41:32;;;;;;;2.00;1.13;;;;;;;;;;5135372;27;20421;-60
2023/08/18 09:43:59;;;;;;;;;;;;;;;;;;5135789;27;20058;-60
2023/08/18 09:46:27;;;;;;;3.40;1.88;;;;;;;;;;5135187;27;19919;-61
2023/08/18 09:48:55;;;;;;;2.72;1.48;;;;;;;;;;5135303;27;20417;-61
2023/08/18 09:51:23;;;;;;;3.38;1.90;;;;;;;;;;5135369;27;20062;-61
2023/08/18 09:53:53;;;;;;;2.27;1.20;;;;;;;;;;5135148;27;20047;-62
2023/08/18 09:56:25;;;;;;;2.35;1.70;;;;;;;;;;5135468;27;20399;-61
2023/08/18 09:58:58;;;;;;;1.98;1.20;;;;;;;;;;5135280;27;20051;-61
2023/08/18 10:01:26;;;;;;;1.98;1.27;;;;;;;;;;5134862;27;20051;-62
2023/08/18 10:03:54;;;;;;;2.28;1.25;;;;;;;;;;5134651;27;20059;-61
2023/08/18 10:06:20;;;;;;;;;;;;;;;;;;5135568;27;20047;-61
2023/08/18 10:08:47;;;;;;;2.50;1.70;;;;;;;;;;5134789;27;19926;-61
2023/08/18 10:11:14;;;;;;;1.90;1.08;;;;;;;;;;5135077;27;20051;-61
2023/08/18 10:13:42;;;;;;;2.20;1.50;;;;;;;;;;5134931;27;20074;-61
2023/08/18 10:16:10;;;;;;;1.77;1.20;;;;;;;;;;5134428;27;20055;-60
2023/08/18 10:18:37;;;;;;;2.85;1.70;;;;;;;;;;5134765;27;20070;-61
2023/08/18 10:21:03;;;;;;;2.23;1.47;;;;;;;;;;5134770;27;20055;-61
2023/08/18 10:23:31;;;;;;;1.83;1.30;;;;;;;;;;5134294;27;20513;-61
2023/08/18 10:25:57;;;;;;;;;;;;;;;;;;5135194;27;20452;-61
2023/08/18 10:28:28;;;;;;;2.20;1.30;;;;;;;;;;5134553;27;19919;-61
2023/08/18 10:30:57;;;;;;;1.80;1.20;;;;;;;;;;5134042;27;20522;-61
2023/08/18 10:33:30;;;;;;;2.20;1.55;;;;;;;;;;5134339;27;20054;-61
2023/08/18 10:35:57;;;;;;;2.17;1.42;;;;;;;;;;5133757;27;20051;-61
2023/08/18 10:38:27;;;;;;;2.28;1.27;;;;;;;;;;5134314;27;20051;-61
2023/08/18 10:40:53;;;;;;;2.28;1.55;;;;;;;;;;5134297;27;20487;-61
2023/08/18 10:43:20;;;;;;;2.20;1.40;;;;;;;;;;5133817;27;20054;-61
2023/08/18 10:45:50;;;;;;;2.40;1.58;;;;;;;;;;5134236;27;20055;-61
2023/08/18 10:48:17;;;;;;;2.40;1.40;;;;;;;;;;5134117;27;20050;-61
2023/08/18 10:50:45;;;;;;;3.42;1.80;;;;;;;;;;5134170;27;20062;-61
2023/08/18 10:53:12;;;;;;;2.17;1.50;;;;;;;;;;5133692;27;20058;-61
2023/08/18 10:55:40;;;;;;;2.70;1.90;;;;;;;;;;5134015;27;20145;-61
2023/08/18 10:58:06;;;;;;;3.42;1.75;;;;;;;;;;5133736;27;20055;-61
2023/08/18 11:00:35;;;;;;;2.50;1.60;;;;;;;;;;5133843;27;20062;-61
2023/08/18 11:03:03;;;;;;;2.17;1.23;;;;;;;;;;5133695;27;20051;-60
2023/08/18 11:05:31;;;;;;;2.75;1.10;;;;;;;;;;5133813;27;20051;-61
2023/08/18 11:07:59;;;;;;;2.80;1.75;;;;;;;;;;5133583;27;20043;-61
2023/08/18 11:10:26;;;;;;;3.13;1.52;;;;;;;;;;5133964;27;20404;-61
2023/08/18 11:12:54;;;;;;;2.45;1.63;;;;;;;;;;5133247;27;20047;-61
2023/08/18 11:15:21;;;;;;;2.40;1.60;;;;;;;;;;5133345;27;20051;-61
2023/08/18 11:17:49;;;;;;;2.20;1.40;;;;;;;;;;5133423;27;20055;-61
2023/08/18 11:20:16;;;;;;;;;;;;;;;;;;5134021;27;20502;-61
2023/08/18 11:22:45;;;;;;;2.22;1.60;;;;;;;;;;5133702;27;20283;-61
2023/08/18 11:25:14;;;;;;;2.97;1.42;;;;;;;;;;5133715;27;20051;-61
2023/08/18 11:27:42;;;;;;;3.05;1.60;;;;;;;;;;5133480;27;20062;-61
2023/08/18 11:30:10;;;;;;;2.33;1.60;;;;;;;;;;5133421;27;20065;-61
2023/08/18 11:32:37;;;;;;;2.28;1.77;;;;;;;;;;5133481;27;20055;-61
2023/08/18 11:35:05;;;;;;;2.20;1.48;;;;;;;;;;5132962;27;20054;-61
2023/08/18 11:37:32;;;;;;;2.22;1.60;;;;;;;;;;5133168;27;20055;-61
2023/08/18 11:39:58;;;;;;;3.30;1.33;;;;;;;;;;5133460;27;20058;-61
2023/08/18 11:42:26;;;;;;;3.03;1.83;;;;;;;;;;5132946;27;20051;-62
2023/08/18 11:44:54;;;;;;;5.22;2.28;;;;;;;;;;5133383;27;20058;-61
2023/08/18 11:47:23;;;;;;;2.80;1.88;;;;;;;;;;5133159;28;20043;-61
2023/08/18 11:49:51;;;;;;;2.45;1.73;;;;;;;;;;5133235;28;20411;-61
2023/08/18 11:52:18;;;;;;;2.75;2.00;;;;;;;;;;5133304;28;20059;-61
2023/08/18 11:54:45;;;;;;;1.95;1.63;;;;;;;;;;5132808;28;20054;-61
2023/08/18 11:57:12;;;;;;;;;;;;;;;;;;5133709;28;20051;-61
2023/08/18 11:59:44;;;;;;;2.78;2.58;;;;;;;;;;5132904;28;19920;-61
2023/08/18 12:02:11;;;;;;;2.40;1.40;;;;;;;;;;5133257;28;20411;-61
2023/08/18 12:04:37;;;;;;;;;;;;;;;;;;5133698;28;20391;-61
2023/08/18 12:07:05;;;;;;;1.77;1.25;;;;;;;;;;5133130;28;19923;-62
2023/08/18 12:09:31;;;;;;;2.30;1.38;;;;;;;;;;5133074;28;20050;-61
2023/08/18 12:11:58;;;;;;;2.22;1.70;;;;;;;;;;5133124;28;20058;-61
2023/08/18 12:14:25;;;;;;;2.00;1.30;;;;;;;;;;5132896;28;20051;-61
2023/08/18 12:16:52;;;;;;;;;;;;;;;;;;5133461;28;20047;-61
2023/08/18 12:19:21;;;;;;;2.08;1.60;;;;;;;;;;5132943;28;19949;-61
2023/08/18 12:21:48;;;;;;;2.80;1.50;;;;;;;;;;5133237;28;20051;-61
2023/08/18 12:24:18;;;;;;;1.83;1.55;;;;;;;;;;5133318;27;20126;-61
2023/08/18 12:26:45;;;;;;;2.08;1.70;;;;;;;;;;5137090;27;20051;-61
2023/08/18 12:29:12;;;;;;;2.13;1.70;;;;;;;;;;5136845;27;20055;-61
2023/08/18 12:31:39;;;;;;;;;;;;;;;;;;5136904;27;20051;-61
2023/08/18 12:34:05;;;;;;;1.90;1.60;;;;;;;;;;5136508;27;19920;-61
2023/08/18 12:36:34;;;;;;;2.60;2.10;;;;;;;;;;5136384;27;20121;-61
2023/08/18 12:39:02;;;;;;;2.20;1.55;;;;;;;;;;5136283;27;20051;-61
2023/08/18 12:41:30;;;;;;;2.50;1.80;;;;;;;;;;5136262;27;20077;-61
2023/08/18 12:43:57;;;;;;;2.85;1.88;;;;;;;;;;5136568;27;20495;-61
2023/08/18 12:46:27;;;;;;;2.08;1.58;;;;;;;;;;5136722;27;20154;-61
2023/08/18 12:48:56;;;;;;;2.15;1.55;;;;;;;;;;5136542;27;20058;-61
2023/08/18 12:51:23;;;;;;;2.10;1.60;;;;;;;;;;5136638;27;20070;-61
2023/08/18 12:53:51;;;;;;;2.72;1.63;;;;;;;;;;5135498;27;20069;-61
2023/08/18 12:56:21;;;;;;;2.65;1.75;;;;;;;;;;5136316;27;20062;-61
2023/08/18 12:58:48;;;;;;;2.70;1.50;;;;;;;;;;5136396;27;20054;-61
2023/08/18 13:01:15;;;;;;;2.88;1.63;;;;;;;;;;5136502;27;20057;-61
2023/08/18 13:03:42;;;;;;;1.63;1.20;;;;;;;;;;5136099;27;20373;-61
2023/08/18 13:06:10;;;;;;;5.28;1.45;;;;;;;;;;5136078;27;20410;-61
2023/08/18 13:08:40;;;;;;;2.10;1.50;;;;;;;;;;5135743;27;20054;-61
2023/08/18 13:11:08;;;;;;;1.83;1.40;;;;;;;;;;5136083;27;20055;-61
2023/08/18 13:13:38;;;;;;;2.00;1.50;;;;;;;;;;5135972;27;20047;-61
2023/08/18 13:16:08;;;;;;;2.17;1.20;;;;;;;;;;5136051;27;20059;-61
2023/08/18 13:18:35;;;;;;;1.98;1.50;;;;;;;;;;5135612;27;20059;-61
2023/08/18 13:21:02;;;;;;;2.17;1.48;;;;;;;;;;5136020;27;20051;-61
2023/08/18 13:23:29;;;;;;;2.88;1.60;;;;;;;;;;5135387;27;20050;-61
2023/08/18 13:25:59;;;;;;;2.53;1.95;;;;;;;;;;5134871;27;20043;-61
2023/08/18 13:28:27;;;;;;;2.30;1.73;;;;;;;;;;5135415;27;20078;-61
2023/08/18 13:30:54;;;;;;;3.22;1.75;;;;;;;;;;5135728;27;20062;-60
2023/08/18 13:33:23;;;;;;;3.35;2.00;;;;;;;;;;5135594;27;20507;-61
2023/08/18 13:35:50;;;;;;;2.60;1.52;;;;;;;;;;5134476;27;20070;-61
2023/08/18 13:38:17;;;;;;;2.35;1.80;;;;;;;;;;5135232;27;20051;-61
2023/08/18 13:40:45;;;;;;;2.38;1.65;;;;;;;;;;5135132;27;20058;-60
2023/08/18 13:43:12;;;;;;;1.83;1.50;;;;;;;;;;5135383;27;20047;-61
2023/08/18 13:45:41;;;;;;;2.10;1.63;;;;;;;;;;5135488;27;20073;-60
2023/08/18 13:48:07;;;;;;;1.90;1.60;;;;;;;;;;5135332;27;20569;-60
2023/08/18 13:50:36;;;;;;;1.77;1.50;;;;;;;;;;5135392;27;20408;-61
2023/08/18 13:53:03;;;;;;;2.72;2.03;;;;;;;;;;5135157;27;20062;-61
2023/08/18 13:55:29;;;;;;;2.13;1.65;;;;;;;;;;5135099;27;20043;-61
2023/08/18 13:57:56;;;;;;;2.60;1.70;;;;;;;;;;5134509;27;20057;-60
2023/08/18 14:00:23;;;;;;;2.90;1.87;;;;;;;;;;5134982;27;20495;-60
2023/08/18 14:02:51;;;;;;;2.43;1.50;;;;;;;;;;5135129;27;20483;-61
2023/08/18 14:05:18;;;;;;;2.67;1.40;;;;;;;;;;5134615;27;20507;-60
2023/08/18 14:07:45;;;;;;;4.18;1.48;;;;;;;;;;5134719;27;20055;-60
2023/08/18 14:10:12;;;;;;;2.53;1.70;;;;;;;;;;5134777;27;20469;-60
2023/08/18 14:12:46;;;;;;;2.13;1.52;;;;;;;;;;5134343;27;20073;-60
2023/08/18 14:15:16;;;;;;;2.20;1.83;;;;;;;;;;5134819;27;20411;-61
2023/08/18 14:17:44;;;;;;;2.70;1.80;;;;;;;;;;5134325;27;20055;-61
2023/08/18 14:20:13;;;;;;;1.90;1.35;;;;;;;;;;5134520;27;20058;-61
2023/08/18 14:22:42;;;;;;;2.08;1.73;;;;;;;;;;5134637;27;20062;-61
2023/08/18 14:25:10;;;;;;;3.78;1.90;;;;;;;;;;5134641;27;20396;-61
2023/08/18 14:27:37;;;;;;;4.82;1.58;;;;;;;;;;5134575;27;20428;-61
2023/08/18 14:30:06;;;;;;;2.58;1.80;;;;;;;;;;5134697;27;20077;-61
2023/08/18 14:32:34;;;;;;;2.28;1.73;;;;;;;;;;5134121;27;20408;-60
2023/08/18 14:35:03;;;;;;;2.30;1.17;;;;;;;;;;5133672;27;20051;-61
2023/08/18 14:37:33;;;;;;;2.20;1.58;;;;;;;;;;5134042;27;20058;-61
2023/08/18 14:40:05;;;;;;;3.10;2.03;;;;;;;;;;5133472;27;20069;-61
2023/08/18 14:42:34;;;;;;;3.03;1.83;;;;;;;;;;5134156;27;20047;-61
2023/08/18 14:45:03;;;;;;;3.20;1.73;;;;;;;;;;5133961;27;20047;-60
2023/08/18 14:47:29;;;;;;;2.55;2.03;;;;;;;;;;5133428;27;20414;-60